sensor_id;sensor_type;location;lat;lon;timestamp;temperature;humidity
12911;DHT22;6523;49.758;6.120;2022-08-19T00:01:17;16.30;99.90
12911;DHT22;6523;49.758;6.120;2022-08-19T00:03:42;16.30;99.90
12911;DHT22;6523;49.758;6.120;2022-08-19T00:06:08;16.30;99.90
12911;DHT22;6523;49.758;6.120;2022-08-19T00:08:35;16.20;99.90
12911;DHT22;6523;49.758;6.120;2022-08-19T00:11:00;16.20;99.90
12911;DHT22;6523;49.758;6.120;2022-08-19T00:13:26;16.20;99.90
12911;DHT22;6523;49.758;6.120;2022-08-19T00:15:54;16.10;99.90
12911;DHT22;6523;49.758;6.120;2022-08-19T00:18:20;16.10;99.90
12911;DHT22;6523;49.758;6.120;2022-08-19T00:20:45;16.10;99.90
12911;DHT22;6523;49.758;6.120;2022-08-19T00:23:11;16.30;99.90
12911;DHT22;6523;49.758;6.120;2022-08-19T00:25:37;16.30;99.90
12911;DHT22;6523;49.758;6.120;2022-08-19T00:28:03;16.30;99.90
12911;DHT22;6523;49.758;6.120;2022-08-19T00:30:29;16.20;99.90
12911;DHT22;6523;49.758;6.120;2022-08-19T00:32:56;16.10;99.90
12911;DHT22;6523;49.758;6.120;2022-08-19T00:35:21;16.10;99.90
12911;DHT22;6523;49.758;6.120;2022-08-19T00:37:48;16.40;99.90
12911;DHT22;6523;49.758;6.120;2022-08-19T00:40:16;16.40;99.90
12911;DHT22;6523;49.758;6.120;2022-08-19T00:42:42;16.10;99.90
12911;DHT22;6523;49.758;6.120;2022-08-19T00:45:15;16.10;99.90
12911;DHT22;6523;49.758;6.120;2022-08-19T00:47:42;16.00;99.90
12911;DHT22;6523;49.758;6.120;2022-08-19T00:50:10;15.80;99.90
12911;DHT22;6523;49.758;6.120;2022-08-19T00:52:40;15.80;99.90
12911;DHT22;6523;49.758;6.120;2022-08-19T00:55:14;15.70;99.90
12911;DHT22;6523;49.758;6.120;2022-08-19T00:57:46;15.80;99.90
12911;DHT22;6523;49.758;6.120;2022-08-19T01:00:17;15.90;99.90
12911;DHT22;6523;49.758;6.120;2022-08-19T01:02:43;15.90;99.90
12911;DHT22;6523;49.758;6.120;2022-08-19T01:05:12;16.00;99.90
12911;DHT22;6523;49.758;6.120;2022-08-19T01:07:39;16.00;99.90
12911;DHT22;6523;49.758;6.120;2022-08-19T01:10:09;16.00;99.90
12911;DHT22;6523;49.758;6.120;2022-08-19T01:12:36;15.90;99.90
12911;DHT22;6523;49.758;6.120;2022-08-19T01:15:02;15.70;99.90
12911;DHT22;6523;49.758;6.120;2022-08-19T01:17:28;15.60;99.90
12911;DHT22;6523;49.758;6.120;2022-08-19T01:19:54;15.50;99.90
12911;DHT22;6523;49.758;6.120;2022-08-19T01:22:46;15.40;99.90
12911;DHT22;6523;49.758;6.120;2022-08-19T01:25:15;15.40;99.90
12911;DHT22;6523;49.758;6.120;2022-08-19T01:27:45;15.50;99.90
12911;DHT22;6523;49.758;6.120;2022-08-19T01:30:16;15.50;99.90
12911;DHT22;6523;49.758;6.120;2022-08-19T01:32:41;15.50;99.90
12911;DHT22;6523;49.758;6.120;2022-08-19T01:35:11;15.50;99.90
12911;DHT22;6523;49.758;6.120;2022-08-19T01:38:18;15.50;99.90
12911;DHT22;6523;49.758;6.120;2022-08-19T01:40:44;15.40;99.90
12911;DHT22;6523;49.758;6.120;2022-08-19T01:43:10;15.40;99.90
12911;DHT22;6523;49.758;6.120;2022-08-19T01:45:36;15.30;99.90
12911;DHT22;6523;49.758;6.120;2022-08-19T01:48:06;15.30;99.90
12911;DHT22;6523;49.758;6.120;2022-08-19T01:50:33;15.30;99.90
12911;DHT22;6523;49.758;6.120;2022-08-19T01:53:01;15.40;99.90
12911;DHT22;6523;49.758;6.120;2022-08-19T01:55:27;15.40;99.90
12911;DHT22;6523;49.758;6.120;2022-08-19T01:57:58;15.30;99.90
12911;DHT22;6523;49.758;6.120;2022-08-19T02:00:27;15.40;99.90
12911;DHT22;6523;49.758;6.120;2022-08-19T02:02:53;15.30;99.90
12911;DHT22;6523;49.758;6.120;2022-08-19T02:05:18;15.30;99.90
12911;DHT22;6523;49.758;6.120;2022-08-19T02:07:46;15.20;99.90
12911;DHT22;6523;49.758;6.120;2022-08-19T02:10:15;15.30;99.90
12911;DHT22;6523;49.758;6.120;2022-08-19T02:12:42;15.20;99.90
12911;DHT22;6523;49.758;6.120;2022-08-19T02:15:08;15.30;99.90
12911;DHT22;6523;49.758;6.120;2022-08-19T02:17:35;15.50;99.90
12911;DHT22;6523;49.758;6.120;2022-08-19T02:20:01;15.40;99.90
12911;DHT22;6523;49.758;6.120;2022-08-19T02:22:27;15.20;99.90
12911;DHT22;6523;49.758;6.120;2022-08-19T02:24:53;15.10;99.90
12911;DHT22;6523;49.758;6.120;2022-08-19T02:27:19;15.20;99.90
12911;DHT22;6523;49.758;6.120;2022-08-19T02:29:49;15.30;99.90
12911;DHT22;6523;49.758;6.120;2022-08-19T02:32:16;15.40;99.90
12911;DHT22;6523;49.758;6.120;2022-08-19T02:34:42;15.30;99.90
12911;DHT22;6523;49.758;6.120;2022-08-19T02:37:08;15.20;99.90
12911;DHT22;6523;49.758;6.120;2022-08-19T02:39:53;15.10;99.90
12911;DHT22;6523;49.758;6.120;2022-08-19T02:42:19;15.20;99.90
12911;DHT22;6523;49.758;6.120;2022-08-19T02:44:44;15.20;99.90
12911;DHT22;6523;49.758;6.120;2022-08-19T02:47:10;15.10;99.90
12911;DHT22;6523;49.758;6.120;2022-08-19T02:49:36;15.10;99.90
12911;DHT22;6523;49.758;6.120;2022-08-19T02:52:02;15.10;99.90
12911;DHT22;6523;49.758;6.120;2022-08-19T02:54:28;15.10;99.90
12911;DHT22;6523;49.758;6.120;2022-08-19T02:56:54;15.10;99.90
12911;DHT22;6523;49.758;6.120;2022-08-19T02:59:19;15.10;99.90
12911;DHT22;6523;49.758;6.120;2022-08-19T03:01:45;15.20;99.90
12911;DHT22;6523;49.758;6.120;2022-08-19T03:04:15;15.20;99.90
12911;DHT22;6523;49.758;6.120;2022-08-19T03:06:45;15.10;99.90
12911;DHT22;6523;49.758;6.120;2022-08-19T03:09:11;15.10;99.90
12911;DHT22;6523;49.758;6.120;2022-08-19T03:11:37;15.00;99.90
12911;DHT22;6523;49.758;6.120;2022-08-19T03:14:04;15.00;99.90
12911;DHT22;6523;49.758;6.120;2022-08-19T03:16:39;15.00;99.90
12911;DHT22;6523;49.758;6.120;2022-08-19T03:19:05;15.10;99.90
12911;DHT22;6523;49.758;6.120;2022-08-19T03:21:32;15.10;99.90
12911;DHT22;6523;49.758;6.120;2022-08-19T03:24:00;15.00;99.90
12911;DHT22;6523;49.758;6.120;2022-08-19T03:26:26;14.90;99.90
12911;DHT22;6523;49.758;6.120;2022-08-19T03:28:52;14.90;99.90
12911;DHT22;6523;49.758;6.120;2022-08-19T03:31:20;14.80;99.90
12911;DHT22;6523;49.758;6.120;2022-08-19T03:33:50;14.70;99.90
12911;DHT22;6523;49.758;6.120;2022-08-19T03:36:22;14.80;99.90
12911;DHT22;6523;49.758;6.120;2022-08-19T03:38:55;14.90;99.90
12911;DHT22;6523;49.758;6.120;2022-08-19T03:41:27;15.00;99.90
12911;DHT22;6523;49.758;6.120;2022-08-19T03:43:53;15.00;99.90
12911;DHT22;6523;49.758;6.120;2022-08-19T03:46:22;14.90;99.90
12911;DHT22;6523;49.758;6.120;2022-08-19T03:48:50;15.10;99.90
12911;DHT22;6523;49.758;6.120;2022-08-19T03:53:47;14.80;99.90
12911;DHT22;6523;49.758;6.120;2022-08-19T03:56:13;15.00;99.90
12911;DHT22;6523;49.758;6.120;2022-08-19T03:58:39;15.10;99.90
12911;DHT22;6523;49.758;6.120;2022-08-19T04:01:20;15.00;99.90
12911;DHT22;6523;49.758;6.120;2022-08-19T04:03:46;14.90;99.90
12911;DHT22;6523;49.758;6.120;2022-08-19T04:06:23;14.80;99.90
12911;DHT22;6523;49.758;6.120;2022-08-19T04:08:51;14.70;99.90
12911;DHT22;6523;49.758;6.120;2022-08-19T04:11:23;14.80;99.90
12911;DHT22;6523;49.758;6.120;2022-08-19T04:13:50;14.70;99.90
12911;DHT22;6523;49.758;6.120;2022-08-19T04:16:17;14.70;99.90
12911;DHT22;6523;49.758;6.120;2022-08-19T04:18:43;14.70;99.90
12911;DHT22;6523;49.758;6.120;2022-08-19T04:21:18;14.70;99.90
12911;DHT22;6523;49.758;6.120;2022-08-19T04:23:45;14.70;99.90
12911;DHT22;6523;49.758;6.120;2022-08-19T04:26:16;14.80;99.90
12911;DHT22;6523;49.758;6.120;2022-08-19T04:28:43;14.80;99.90
12911;DHT22;6523;49.758;6.120;2022-08-19T04:31:17;14.90;99.90
12911;DHT22;6523;49.758;6.120;2022-08-19T04:33:43;14.80;99.90
12911;DHT22;6523;49.758;6.120;2022-08-19T04:36:16;14.60;99.90
12911;DHT22;6523;49.758;6.120;2022-08-19T04:38:43;14.40;99.90
12911;DHT22;6523;49.758;6.120;2022-08-19T04:41:08;14.40;99.90
12911;DHT22;6523;49.758;6.120;2022-08-19T04:43:52;14.30;99.90
12911;DHT22;6523;49.758;6.120;2022-08-19T04:46:18;14.40;99.90
12911;DHT22;6523;49.758;6.120;2022-08-19T04:48:44;14.40;99.90
12911;DHT22;6523;49.758;6.120;2022-08-19T04:51:11;14.50;99.90
12911;DHT22;6523;49.758;6.120;2022-08-19T04:53:39;14.40;99.90
12911;DHT22;6523;49.758;6.120;2022-08-19T04:56:17;14.40;99.90
12911;DHT22;6523;49.758;6.120;2022-08-19T04:58:45;14.50;99.90
12911;DHT22;6523;49.758;6.120;2022-08-19T05:01:20;14.50;99.90
12911;DHT22;6523;49.758;6.120;2022-08-19T05:03:46;14.50;99.90
12911;DHT22;6523;49.758;6.120;2022-08-19T05:06:13;14.40;99.90
12911;DHT22;6523;49.758;6.120;2022-08-19T05:08:41;14.40;99.90
12911;DHT22;6523;49.758;6.120;2022-08-19T05:11:14;14.60;99.90
12911;DHT22;6523;49.758;6.120;2022-08-19T05:13:41;14.70;99.90
12911;DHT22;6523;49.758;6.120;2022-08-19T05:16:10;14.80;99.90
12911;DHT22;6523;49.758;6.120;2022-08-19T05:18:36;14.80;99.90
12911;DHT22;6523;49.758;6.120;2022-08-19T05:21:21;14.80;99.90
12911;DHT22;6523;49.758;6.120;2022-08-19T05:24:06;14.70;99.90
12911;DHT22;6523;49.758;6.120;2022-08-19T05:26:39;14.70;99.90
12911;DHT22;6523;49.758;6.120;2022-08-19T05:29:06;14.80;99.90
12911;DHT22;6523;49.758;6.120;2022-08-19T05:31:33;14.90;99.90
12911;DHT22;6523;49.758;6.120;2022-08-19T05:33:59;15.00;99.90
12911;DHT22;6523;49.758;6.120;2022-08-19T05:36:32;15.10;99.90
12911;DHT22;6523;49.758;6.120;2022-08-19T05:39:00;15.20;99.90
12911;DHT22;6523;49.758;6.120;2022-08-19T05:41:25;15.20;99.90
12911;DHT22;6523;49.758;6.120;2022-08-19T05:43:56;15.30;99.90
12911;DHT22;6523;49.758;6.120;2022-08-19T05:46:22;15.30;99.90
12911;DHT22;6523;49.758;6.120;2022-08-19T05:48:48;15.20;99.90
12911;DHT22;6523;49.758;6.120;2022-08-19T05:51:14;15.30;99.90
12911;DHT22;6523;49.758;6.120;2022-08-19T05:53:41;15.30;99.90
12911;DHT22;6523;49.758;6.120;2022-08-19T05:56:12;15.30;99.90
12911;DHT22;6523;49.758;6.120;2022-08-19T05:58:38;15.40;99.90
12911;DHT22;6523;49.758;6.120;2022-08-19T06:01:09;15.40;99.90
12911;DHT22;6523;49.758;6.120;2022-08-19T06:03:35;15.50;99.90
12911;DHT22;6523;49.758;6.120;2022-08-19T06:06:03;15.80;99.90
12911;DHT22;6523;49.758;6.120;2022-08-19T06:08:29;15.90;99.90
12911;DHT22;6523;49.758;6.120;2022-08-19T06:10:55;15.90;99.90
12911;DHT22;6523;49.758;6.120;2022-08-19T06:13:21;15.90;99.90
12911;DHT22;6523;49.758;6.120;2022-08-19T06:15:48;16.10;99.90
12911;DHT22;6523;49.758;6.120;2022-08-19T06:18:14;16.10;99.90
12911;DHT22;6523;49.758;6.120;2022-08-19T06:20:41;16.00;99.90
12911;DHT22;6523;49.758;6.120;2022-08-19T06:23:07;16.10;99.90
12911;DHT22;6523;49.758;6.120;2022-08-19T06:25:34;16.20;99.90
12911;DHT22;6523;49.758;6.120;2022-08-19T06:27:59;16.40;99.90
12911;DHT22;6523;49.758;6.120;2022-08-19T06:30:25;16.40;99.90
12911;DHT22;6523;49.758;6.120;2022-08-19T06:32:51;16.70;99.90
12911;DHT22;6523;49.758;6.120;2022-08-19T06:35:16;16.70;99.90
12911;DHT22;6523;49.758;6.120;2022-08-19T06:37:42;16.80;99.90
12911;DHT22;6523;49.758;6.120;2022-08-19T06:40:08;17.00;99.90
12911;DHT22;6523;49.758;6.120;2022-08-19T06:42:35;17.30;99.90
12911;DHT22;6523;49.758;6.120;2022-08-19T06:45:05;17.60;99.90
12911;DHT22;6523;49.758;6.120;2022-08-19T06:47:31;17.70;99.90
12911;DHT22;6523;49.758;6.120;2022-08-19T06:49:59;17.70;99.90
12911;DHT22;6523;49.758;6.120;2022-08-19T06:52:31;17.80;99.90
12911;DHT22;6523;49.758;6.120;2022-08-19T06:54:57;18.00;99.90
12911;DHT22;6523;49.758;6.120;2022-08-19T06:57:24;17.90;99.90
12911;DHT22;6523;49.758;6.120;2022-08-19T06:59:50;18.00;99.90
12911;DHT22;6523;49.758;6.120;2022-08-19T07:02:15;18.10;99.90
12911;DHT22;6523;49.758;6.120;2022-08-19T07:04:41;18.40;99.90
12911;DHT22;6523;49.758;6.120;2022-08-19T07:07:13;18.50;99.90
12911;DHT22;6523;49.758;6.120;2022-08-19T07:09:41;18.60;99.90
12911;DHT22;6523;49.758;6.120;2022-08-19T07:12:09;18.90;99.90
12911;DHT22;6523;49.758;6.120;2022-08-19T07:14:35;19.00;99.90
12911;DHT22;6523;49.758;6.120;2022-08-19T07:17:06;19.10;99.90
12911;DHT22;6523;49.758;6.120;2022-08-19T07:19:32;19.20;99.90
12911;DHT22;6523;49.758;6.120;2022-08-19T07:22:01;19.50;99.90
12911;DHT22;6523;49.758;6.120;2022-08-19T07:24:28;19.50;99.90
12911;DHT22;6523;49.758;6.120;2022-08-19T07:26:55;19.80;99.90
12911;DHT22;6523;49.758;6.120;2022-08-19T07:29:23;20.00;99.90
12911;DHT22;6523;49.758;6.120;2022-08-19T07:31:50;20.10;99.90
12911;DHT22;6523;49.758;6.120;2022-08-19T07:34:16;20.20;99.90
12911;DHT22;6523;49.758;6.120;2022-08-19T07:36:43;20.10;99.90
12911;DHT22;6523;49.758;6.120;2022-08-19T07:39:14;20.10;99.90
12911;DHT22;6523;49.758;6.120;2022-08-19T07:41:41;20.50;99.90
12911;DHT22;6523;49.758;6.120;2022-08-19T07:44:08;20.70;99.90
12911;DHT22;6523;49.758;6.120;2022-08-19T07:46:36;20.80;99.90
12911;DHT22;6523;49.758;6.120;2022-08-19T07:49:03;21.00;99.90
12911;DHT22;6523;49.758;6.120;2022-08-19T07:51:29;20.90;99.90
12911;DHT22;6523;49.758;6.120;2022-08-19T07:53:55;21.00;99.90
12911;DHT22;6523;49.758;6.120;2022-08-19T07:56:21;21.20;99.90
12911;DHT22;6523;49.758;6.120;2022-08-19T07:58:49;21.10;99.90
12911;DHT22;6523;49.758;6.120;2022-08-19T08:01:18;21.50;99.90
12911;DHT22;6523;49.758;6.120;2022-08-19T08:03:45;21.90;99.90
12911;DHT22;6523;49.758;6.120;2022-08-19T08:06:29;22.10;99.90
12911;DHT22;6523;49.758;6.120;2022-08-19T08:09:18;22.40;99.90
12911;DHT22;6523;49.758;6.120;2022-08-19T08:12:04;22.40;99.90
12911;DHT22;6523;49.758;6.120;2022-08-19T08:14:34;22.30;99.90
12911;DHT22;6523;49.758;6.120;2022-08-19T08:17:01;22.00;99.90
12911;DHT22;6523;49.758;6.120;2022-08-19T08:19:28;21.50;99.90
12911;DHT22;6523;49.758;6.120;2022-08-19T08:21:55;22.10;99.90
12911;DHT22;6523;49.758;6.120;2022-08-19T08:24:21;22.10;99.90
12911;DHT22;6523;49.758;6.120;2022-08-19T08:26:47;22.50;99.90
12911;DHT22;6523;49.758;6.120;2022-08-19T08:29:14;22.70;99.90
12911;DHT22;6523;49.758;6.120;2022-08-19T08:31:42;22.70;99.90
12911;DHT22;6523;49.758;6.120;2022-08-19T08:34:09;22.50;99.90
12911;DHT22;6523;49.758;6.120;2022-08-19T08:36:39;22.60;99.90
12911;DHT22;6523;49.758;6.120;2022-08-19T08:39:12;22.90;99.90
12911;DHT22;6523;49.758;6.120;2022-08-19T08:41:46;23.50;99.90
12911;DHT22;6523;49.758;6.120;2022-08-19T08:44:30;23.80;99.90
12911;DHT22;6523;49.758;6.120;2022-08-19T08:47:01;23.90;99.90
12911;DHT22;6523;49.758;6.120;2022-08-19T08:52:06;24.50;99.90
12911;DHT22;6523;49.758;6.120;2022-08-19T08:54:40;24.70;99.90
12911;DHT22;6523;49.758;6.120;2022-08-19T08:57:15;24.10;99.90
12911;DHT22;6523;49.758;6.120;2022-08-19T08:59:43;23.60;99.90
12911;DHT22;6523;49.758;6.120;2022-08-19T09:02:17;24.10;99.90
12911;DHT22;6523;49.758;6.120;2022-08-19T09:04:42;24.50;99.90
12911;DHT22;6523;49.758;6.120;2022-08-19T09:09:42;24.10;99.90
12911;DHT22;6523;49.758;6.120;2022-08-19T09:14:53;24.40;99.90
12911;DHT22;6523;49.758;6.120;2022-08-19T09:17:24;24.80;99.90
12911;DHT22;6523;49.758;6.120;2022-08-19T09:20:18;24.80;99.90
12911;DHT22;6523;49.758;6.120;2022-08-19T09:22:44;24.80;99.90
12911;DHT22;6523;49.758;6.120;2022-08-19T09:25:12;24.40;99.90
12911;DHT22;6523;49.758;6.120;2022-08-19T09:27:39;24.60;99.90
12911;DHT22;6523;49.758;6.120;2022-08-19T09:30:07;24.80;99.90
12911;DHT22;6523;49.758;6.120;2022-08-19T09:32:33;25.50;99.90
12911;DHT22;6523;49.758;6.120;2022-08-19T09:34:59;25.30;99.90
12911;DHT22;6523;49.758;6.120;2022-08-19T09:37:26;24.40;99.90
12911;DHT22;6523;49.758;6.120;2022-08-19T09:39:51;25.10;99.90
12911;DHT22;6523;49.758;6.120;2022-08-19T09:42:18;25.60;99.90
12911;DHT22;6523;49.758;6.120;2022-08-19T09:44:44;25.30;99.90
12911;DHT22;6523;49.758;6.120;2022-08-19T09:47:11;24.40;99.90
12911;DHT22;6523;49.758;6.120;2022-08-19T09:49:37;24.70;99.90
12911;DHT22;6523;49.758;6.120;2022-08-19T09:52:05;24.90;99.90
12911;DHT22;6523;49.758;6.120;2022-08-19T09:54:31;24.00;99.90
12911;DHT22;6523;49.758;6.120;2022-08-19T09:56:58;24.00;99.90
12911;DHT22;6523;49.758;6.120;2022-08-19T09:59:26;24.50;99.90
12911;DHT22;6523;49.758;6.120;2022-08-19T10:01:51;24.70;99.90
12911;DHT22;6523;49.758;6.120;2022-08-19T10:04:17;25.00;99.90
12911;DHT22;6523;49.758;6.120;2022-08-19T10:06:43;25.20;99.90
12911;DHT22;6523;49.758;6.120;2022-08-19T10:09:10;24.60;99.90
12911;DHT22;6523;49.758;6.120;2022-08-19T10:11:39;24.80;99.90
12911;DHT22;6523;49.758;6.120;2022-08-19T10:14:05;24.80;99.90
12911;DHT22;6523;49.758;6.120;2022-08-19T10:16:32;25.40;99.90
12911;DHT22;6523;49.758;6.120;2022-08-19T10:18:58;24.70;99.90
12911;DHT22;6523;49.758;6.120;2022-08-19T10:21:27;24.60;99.90
12911;DHT22;6523;49.758;6.120;2022-08-19T10:23:56;24.60;99.90
12911;DHT22;6523;49.758;6.120;2022-08-19T10:26:29;24.40;99.90
12911;DHT22;6523;49.758;6.120;2022-08-19T10:28:56;25.00;99.90
12911;DHT22;6523;49.758;6.120;2022-08-19T10:31:25;24.60;99.90
12911;DHT22;6523;49.758;6.120;2022-08-19T10:33:51;25.00;99.90
12911;DHT22;6523;49.758;6.120;2022-08-19T10:36:27;26.10;99.90
12911;DHT22;6523;49.758;6.120;2022-08-19T10:38:55;26.00;99.90
12911;DHT22;6523;49.758;6.120;2022-08-19T10:41:26;26.50;99.90
12911;DHT22;6523;49.758;6.120;2022-08-19T10:43:54;25.40;99.90
12911;DHT22;6523;49.758;6.120;2022-08-19T10:46:21;26.40;99.90
12911;DHT22;6523;49.758;6.120;2022-08-19T10:48:49;26.90;99.90
12911;DHT22;6523;49.758;6.120;2022-08-19T10:51:15;26.80;99.90
12911;DHT22;6523;49.758;6.120;2022-08-19T10:54:01;26.60;99.90
12911;DHT22;6523;49.758;6.120;2022-08-19T10:56:27;25.60;99.90
12911;DHT22;6523;49.758;6.120;2022-08-19T10:59:13;24.90;99.90
12911;DHT22;6523;49.758;6.120;2022-08-19T11:01:39;24.90;99.90
12911;DHT22;6523;49.758;6.120;2022-08-19T11:04:05;25.30;99.90
12911;DHT22;6523;49.758;6.120;2022-08-19T11:06:34;25.80;99.90
12911;DHT22;6523;49.758;6.120;2022-08-19T11:08:59;25.00;99.90
12911;DHT22;6523;49.758;6.120;2022-08-19T11:11:26;25.90;99.90
12911;DHT22;6523;49.758;6.120;2022-08-19T11:13:52;26.40;99.90
12911;DHT22;6523;49.758;6.120;2022-08-19T11:16:27;26.50;99.90
12911;DHT22;6523;49.758;6.120;2022-08-19T11:18:59;27.20;99.90
12911;DHT22;6523;49.758;6.120;2022-08-19T11:21:30;27.30;99.90
12911;DHT22;6523;49.758;6.120;2022-08-19T11:24:00;26.60;99.90
12911;DHT22;6523;49.758;6.120;2022-08-19T11:26:29;26.00;99.90
12911;DHT22;6523;49.758;6.120;2022-08-19T11:28:56;25.70;99.90
12911;DHT22;6523;49.758;6.120;2022-08-19T11:31:27;25.90;99.90
12911;DHT22;6523;49.758;6.120;2022-08-19T11:33:56;26.80;99.90
12911;DHT22;6523;49.758;6.120;2022-08-19T11:36:22;26.70;99.90
12911;DHT22;6523;49.758;6.120;2022-08-19T11:38:49;26.80;99.90
12911;DHT22;6523;49.758;6.120;2022-08-19T11:41:17;26.60;99.90
12911;DHT22;6523;49.758;6.120;2022-08-19T11:43:43;26.40;99.90
12911;DHT22;6523;49.758;6.120;2022-08-19T11:46:13;26.40;99.90
12911;DHT22;6523;49.758;6.120;2022-08-19T11:48:40;27.00;99.90
12911;DHT22;6523;49.758;6.120;2022-08-19T11:51:11;26.70;99.90
12911;DHT22;6523;49.758;6.120;2022-08-19T11:53:38;26.60;99.90
12911;DHT22;6523;49.758;6.120;2022-08-19T11:56:05;26.70;99.90
12911;DHT22;6523;49.758;6.120;2022-08-19T11:58:31;26.20;99.90
12911;DHT22;6523;49.758;6.120;2022-08-19T12:00:57;26.30;99.90
12911;DHT22;6523;49.758;6.120;2022-08-19T12:03:23;26.60;99.90
12911;DHT22;6523;49.758;6.120;2022-08-19T12:05:49;26.70;99.90
12911;DHT22;6523;49.758;6.120;2022-08-19T12:08:16;26.90;99.90
12911;DHT22;6523;49.758;6.120;2022-08-19T12:10:42;26.70;99.90
12911;DHT22;6523;49.758;6.120;2022-08-19T12:13:09;27.10;99.90
12911;DHT22;6523;49.758;6.120;2022-08-19T12:15:37;27.70;99.90
12911;DHT22;6523;49.758;6.120;2022-08-19T12:18:04;28.80;99.90
12911;DHT22;6523;49.758;6.120;2022-08-19T12:20:30;29.10;99.90
12911;DHT22;6523;49.758;6.120;2022-08-19T12:22:55;29.90;99.90
12911;DHT22;6523;49.758;6.120;2022-08-19T12:25:21;27.50;78.40
12911;DHT22;6523;49.758;6.120;2022-08-19T12:27:47;26.50;78.10
12911;DHT22;6523;49.758;6.120;2022-08-19T12:30:13;25.80;78.70
12911;DHT22;6523;49.758;6.120;2022-08-19T12:32:39;26.00;81.50
12911;DHT22;6523;49.758;6.120;2022-08-19T12:35:06;26.70;83.50
12911;DHT22;6523;49.758;6.120;2022-08-19T12:37:32;27.10;76.10
12911;DHT22;6523;49.758;6.120;2022-08-19T12:39:58;27.40;74.00
12911;DHT22;6523;49.758;6.120;2022-08-19T12:42:24;27.30;65.70
12911;DHT22;6523;49.758;6.120;2022-08-19T12:44:49;28.10;70.40
12911;DHT22;6523;49.758;6.120;2022-08-19T12:47:15;27.70;55.90
12911;DHT22;6523;49.758;6.120;2022-08-19T12:49:42;27.40;57.00
12911;DHT22;6523;49.758;6.120;2022-08-19T12:52:09;27.50;60.40
12911;DHT22;6523;49.758;6.120;2022-08-19T12:54:36;27.50;58.80
12911;DHT22;6523;49.758;6.120;2022-08-19T12:57:06;27.90;59.00
12911;DHT22;6523;49.758;6.120;2022-08-19T12:59:33;27.70;53.40
12911;DHT22;6523;49.758;6.120;2022-08-19T13:02:00;28.10;51.30
12911;DHT22;6523;49.758;6.120;2022-08-19T13:04:25;28.70;50.90
12911;DHT22;6523;49.758;6.120;2022-08-19T13:06:51;28.20;42.80
12911;DHT22;6523;49.758;6.120;2022-08-19T13:09:17;27.70;44.60
12911;DHT22;6523;49.758;6.120;2022-08-19T13:11:42;26.70;43.00
12911;DHT22;6523;49.758;6.120;2022-08-19T13:14:08;27.90;46.00
12911;DHT22;6523;49.758;6.120;2022-08-19T13:16:36;27.20;39.60
12911;DHT22;6523;49.758;6.120;2022-08-19T13:19:03;27.50;42.40
12911;DHT22;6523;49.758;6.120;2022-08-19T13:21:31;27.50;37.10
12911;DHT22;6523;49.758;6.120;2022-08-19T13:23:57;26.60;34.60
12911;DHT22;6523;49.758;6.120;2022-08-19T13:26:23;26.40;39.40
12911;DHT22;6523;49.758;6.120;2022-08-19T13:28:49;26.60;34.60
12911;DHT22;6523;49.758;6.120;2022-08-19T13:31:36;26.10;39.00
12911;DHT22;6523;49.758;6.120;2022-08-19T13:34:33;25.40;43.50
12911;DHT22;6523;49.758;6.120;2022-08-19T13:37:01;26.40;46.00
12911;DHT22;6523;49.758;6.120;2022-08-19T13:39:29;27.10;40.00
12911;DHT22;6523;49.758;6.120;2022-08-19T13:41:55;26.80;31.80
12911;DHT22;6523;49.758;6.120;2022-08-19T13:44:21;27.30;28.60
12911;DHT22;6523;49.758;6.120;2022-08-19T13:46:48;28.40;30.10
12911;DHT22;6523;49.758;6.120;2022-08-19T13:49:15;29.10;23.10
12911;DHT22;6523;49.758;6.120;2022-08-19T13:51:42;28.30;21.60
12911;DHT22;6523;49.758;6.120;2022-08-19T13:54:09;27.20;23.00
12911;DHT22;6523;49.758;6.120;2022-08-19T13:56:41;26.40;27.60
12911;DHT22;6523;49.758;6.120;2022-08-19T13:59:07;26.10;28.90
12911;DHT22;6523;49.758;6.120;2022-08-19T14:01:32;25.90;32.70
12911;DHT22;6523;49.758;6.120;2022-08-19T14:03:58;25.80;35.00
12911;DHT22;6523;49.758;6.120;2022-08-19T14:06:24;25.20;41.70
12911;DHT22;6523;49.758;6.120;2022-08-19T14:08:50;25.40;42.30
12911;DHT22;6523;49.758;6.120;2022-08-19T14:11:18;25.80;41.20
12911;DHT22;6523;49.758;6.120;2022-08-19T14:13:43;25.90;39.80
12911;DHT22;6523;49.758;6.120;2022-08-19T14:16:11;25.90;41.80
12911;DHT22;6523;49.758;6.120;2022-08-19T14:18:37;25.70;41.80
12911;DHT22;6523;49.758;6.120;2022-08-19T14:21:03;25.60;44.50
12911;DHT22;6523;49.758;6.120;2022-08-19T14:23:30;25.60;44.80
12911;DHT22;6523;49.758;6.120;2022-08-19T14:26:10;25.50;46.80
12911;DHT22;6523;49.758;6.120;2022-08-19T14:28:37;25.40;48.40
12911;DHT22;6523;49.758;6.120;2022-08-19T14:31:06;25.30;49.50
12911;DHT22;6523;49.758;6.120;2022-08-19T14:33:32;25.40;49.20
12911;DHT22;6523;49.758;6.120;2022-08-19T14:35:58;25.50;50.80
12911;DHT22;6523;49.758;6.120;2022-08-19T14:38:25;26.40;47.10
12911;DHT22;6523;49.758;6.120;2022-08-19T14:40:51;26.00;42.40
12911;DHT22;6523;49.758;6.120;2022-08-19T14:43:17;25.50;46.90
12911;DHT22;6523;49.758;6.120;2022-08-19T14:45:43;25.30;47.10
12911;DHT22;6523;49.758;6.120;2022-08-19T14:48:09;25.30;48.70
12911;DHT22;6523;49.758;6.120;2022-08-19T14:50:35;25.00;50.70
12911;DHT22;6523;49.758;6.120;2022-08-19T14:53:06;25.00;53.40
12911;DHT22;6523;49.758;6.120;2022-08-19T14:55:33;25.10;53.30
12911;DHT22;6523;49.758;6.120;2022-08-19T14:57:58;24.90;55.20
12911;DHT22;6523;49.758;6.120;2022-08-19T15:00:25;24.90;53.50
12911;DHT22;6523;49.758;6.120;2022-08-19T15:02:51;25.00;54.50
12911;DHT22;6523;49.758;6.120;2022-08-19T15:05:18;25.20;54.80
12911;DHT22;6523;49.758;6.120;2022-08-19T15:07:44;25.30;52.10
12911;DHT22;6523;49.758;6.120;2022-08-19T15:10:11;25.20;54.00
12911;DHT22;6523;49.758;6.120;2022-08-19T15:12:38;24.90;66.50
12911;DHT22;6523;49.758;6.120;2022-08-19T15:15:09;24.80;75.00
12911;DHT22;6523;49.758;6.120;2022-08-19T15:17:38;24.80;69.40
12911;DHT22;6523;49.758;6.120;2022-08-19T15:20:05;24.50;68.50
12911;DHT22;6523;49.758;6.120;2022-08-19T15:22:31;24.70;69.20
12911;DHT22;6523;49.758;6.120;2022-08-19T15:24:57;25.50;60.40
12911;DHT22;6523;49.758;6.120;2022-08-19T15:27:22;26.30;55.30
12911;DHT22;6523;49.758;6.120;2022-08-19T15:29:48;26.30;55.90
12911;DHT22;6523;49.758;6.120;2022-08-19T15:32:13;26.90;49.30
12911;DHT22;6523;49.758;6.120;2022-08-19T15:34:39;27.70;43.50
12911;DHT22;6523;49.758;6.120;2022-08-19T15:37:05;27.10;42.60
12911;DHT22;6523;49.758;6.120;2022-08-19T15:39:31;25.60;47.50
12911;DHT22;6523;49.758;6.120;2022-08-19T15:41:57;24.80;57.20
12911;DHT22;6523;49.758;6.120;2022-08-19T15:44:25;24.60;62.40
12911;DHT22;6523;49.758;6.120;2022-08-19T15:46:51;24.60;67.20
12911;DHT22;6523;49.758;6.120;2022-08-19T15:49:17;24.60;67.30
12911;DHT22;6523;49.758;6.120;2022-08-19T15:51:45;25.20;63.80
12911;DHT22;6523;49.758;6.120;2022-08-19T15:54:14;25.90;56.10
12911;DHT22;6523;49.758;6.120;2022-08-19T15:56:40;26.40;53.30
12911;DHT22;6523;49.758;6.120;2022-08-19T15:59:25;27.00;48.70
12911;DHT22;6523;49.758;6.120;2022-08-19T16:02:09;26.60;43.30